Terminal Aerodrome Forecast
Issued by NWS Twin Cities, MN

Home | Current Version | Previous Version | Text Only | Print | Product List | Glossary Off
Versions: 1 2 3 4 5 6 7 8 9 10 11 12 13 14 15 16 17 18 19 20 21 22 23 24 25 26 27

000
FTUS43 KMPX 291120
TAFMSP
TAF
KMSP 291120Z 2912/3018 02004KT 3SM BR SCT012 BKN025 BKN040
     FM291300 01004KT 6SM BR SCT015 BKN025
     FM291500 03007KT P6SM SCT025 BKN040
     FM300000 04006KT P6SM SCT250=

USA.gov is the U.S. government's official web portal to all federal, state and local government web resources and services.